Time;durP1;ratioP1;P1;durP2;ratioP2;P2;SDS_P1;SDS_P2;PMS_P1;PMS_P2;Temp;Humidity;BMP_temperature;BMP_pressure;BME280_temperature;BME280_humidity;BME280_pressure;Samples;Min_cycle;Max_cycle;Signal;HPM_P1;HPM_P2
2022/04/21 00:02:06;;;;;;;6.40;4.83;;;;;;;4.53;nan;-23943.03;5011820;28;20208;-72
2022/04/21 00:04:32;;;;;;;6.83;4.67;;;;;;;4.80;nan;-23950.56;5013985;28;20635;-73
2022/04/21 00:06:57;;;;;;;8.23;5.00;;;;;;;4.42;nan;-23939.91;5015382;28;20175;-70
2022/04/21 00:09:22;;;;;;;6.73;4.50;;;;;;;4.87;nan;-23952.72;5015488;28;20172;-69
2022/04/21 00:11:48;;;;;;;6.23;4.37;;;;;;;4.74;nan;-23949.00;5015278;28;20175;-70
2022/04/21 00:14:13;;;;;;;7.63;5.07;;;;;;;4.59;nan;-23944.75;5013834;28;20249;-72
2022/04/21 00:16:38;;;;;;;8.37;5.20;;;;;;;4.34;nan;-23937.63;5012698;28;20207;-70
2022/04/21 00:19:04;;;;;;;5.97;4.40;;;;;;;4.59;nan;-23944.75;5013451;28;20266;-74
2022/04/21 00:23:26;;;;;;;6.90;4.50;;;;;;;4.32;nan;-23937.19;5015074;28;20191;-72
2022/04/21 00:24:15;;;;;;;6.20;4.33;;;;;;;4.29;nan;-23936.34;5014892;28;20607;-72
2022/04/21 00:26:40;;;;;;;7.87;5.30;;;;;;;4.29;nan;-23936.19;5014361;28;20188;-71
2022/04/21 00:29:05;;;;;;;6.63;4.97;;;;;;;4.76;nan;-23949.59;5014614;28;20183;-73
2022/04/21 00:31:31;;;;;;;6.80;4.70;;;;;;;4.38;nan;-23938.75;5014633;28;20172;-73
2022/04/21 00:33:56;;;;;;;5.97;4.40;;;;;;;4.25;nan;-23935.22;5014396;28;20242;-73
2022/04/21 00:36:22;;;;;;;6.67;4.60;;;;;;;4.80;nan;-23950.72;5014233;28;20226;-72
2022/04/21 00:38:47;;;;;;;6.17;4.30;;;;;;;4.76;nan;-23949.59;5014447;28;20232;-70
2022/04/21 00:41:12;;;;;;;7.13;5.03;;;;;;;4.53;nan;-23943.03;5014450;28;20199;-74
2022/04/21 00:43:38;;;;;;;6.77;4.73;;;;;;;4.92;nan;-23953.84;5014453;28;20171;-74
2022/04/21 00:46:03;;;;;;;6.57;4.67;;;;;;;4.53;nan;-23943.03;5014427;28;20211;-71
2022/04/21 00:48:29;;;;;;;6.43;4.73;;;;;;;4.41;nan;-23939.75;5014048;28;20643;-73
2022/04/21 00:50:56;;;;;;;6.17;4.40;;;;;;;4.87;nan;-23952.72;5012498;28;20550;-74
2022/04/21 00:53:21;;;;;;;7.07;4.73;;;;;;;5.03;nan;-23957.13;5014580;28;20299;-74
2022/04/21 00:55:47;;;;;;;6.50;4.77;;;;;;;4.99;nan;-23955.84;5014607;28;20175;-73
2022/04/21 00:58:14;;;;;;;6.53;4.63;;;;;;;4.58;nan;-23944.31;5013375;28;20179;-72
2022/04/21 01:00:40;;;;;;;7.33;4.60;;;;;;;4.78;nan;-23950.00;5014340;28;20168;-72
2022/04/21 01:03:06;;;;;;;7.57;4.97;;;;;;;4.36;nan;-23938.34;5014429;28;20183;-71
2022/04/21 01:05:34;;;;;;;7.80;4.83;;;;;;;4.71;nan;-23948.16;5014271;28;20526;-72
2022/04/21 01:08:05;;;;;;;7.83;4.97;;;;;;;4.36;nan;-23938.19;5014273;28;20207;-73
2022/04/21 01:10:32;;;;;;;7.27;5.00;;;;;;;4.36;nan;-23938.19;5014226;28;20172;-73
2022/04/21 01:12:59;;;;;;;7.50;4.70;;;;;;;4.78;nan;-23950.16;5014103;28;20698;-74
2022/04/21 01:15:24;;;;;;;9.60;5.30;;;;;;;4.51;nan;-23942.47;5013494;28;20172;-70
2022/04/21 01:17:52;;;;;;;9.70;4.83;;;;;;;4.69;nan;-23947.44;5011676;28;20184;-73
2022/04/21 01:20:19;;;;;;;8.43;5.67;;;;;;;4.45;nan;-23940.91;5011527;28;20222;-71
2022/04/21 01:22:45;;;;;;;9.30;5.87;;;;;;;4.55;nan;-23943.47;5012373;28;20184;-72
2022/04/21 01:25:11;;;;;;;8.27;5.20;;;;;;;4.92;nan;-23954.00;5013927;28;20187;-72
2022/04/21 01:27:37;;;;;;;9.37;5.57;;;;;;;5.19;nan;-23961.53;5014297;28;20176;-73
2022/04/21 01:30:05;;;;;;;9.03;5.67;;;;;;;5.01;nan;-23956.41;5013301;28;20267;-70
2022/04/21 01:32:35;;;;;;;8.77;5.53;;;;;;;4.79;nan;-23950.28;5013924;28;20175;-71
2022/04/21 01:35:01;;;;;;;8.63;4.83;;;;;;;4.86;nan;-23952.28;5014016;28;20177;-75
2022/04/21 01:42:55;;;;;;;5.77;4.50;;;;;;;5.37;nan;-23966.66;5009969;28;20195;-70
2022/04/21 01:45:20;;;;;;;6.07;4.27;;;;;;;5.10;nan;-23958.97;5013407;28;20175;-70
2022/04/21 01:47:46;;;;;;;7.27;4.80;;;;;;;5.45;nan;-23968.78;5013696;28;20168;-73
2022/04/21 01:50:11;;;;;;;6.33;4.10;;;;;;;5.42;nan;-23967.94;5013409;28;20195;-74
2022/04/21 01:52:37;;;;;;;6.93;4.43;;;;;;;5.18;nan;-23961.38;5013452;28;20274;-74
2022/04/21 01:55:04;;;;;;;7.40;4.80;;;;;;;5.20;nan;-23961.81;5013361;28;20168;-73
2022/04/21 01:57:29;;;;;;;7.63;4.77;;;;;;;5.45;nan;-23968.78;5013742;28;20182;-70
2022/04/21 01:59:55;;;;;;;8.07;4.90;;;;;;;5.19;nan;-23961.53;5013296;28;20226;-73
2022/04/21 02:02:20;;;;;;;8.40;5.00;;;;;;;4.84;nan;-23951.84;5013180;28;20172;-71
2022/04/21 02:04:45;;;;;;;8.40;4.87;;;;;;;5.30;nan;-23964.66;5013348;28;20564;-69
2022/04/21 02:07:11;;;;;;;9.07;5.53;;;;;;;5.25;nan;-23963.25;5013327;28;20208;-69
2022/04/21 02:09:37;;;;;;;9.40;5.43;;;;;;;4.79;nan;-23950.28;5013039;28;20188;-68
2022/04/21 02:12:02;;;;;;;8.20;5.63;;;;;;;5.11;nan;-23959.25;5013363;28;20569;-74
2022/04/21 02:14:28;;;;;;;9.33;5.70;;;;;;;5.17;nan;-23961.09;5013054;28;20176;-70
2022/04/21 02:16:53;;;;;;;10.80;5.27;;;;;;;5.08;nan;-23958.53;5013220;28;20651;-69
2022/04/21 02:19:19;;;;;;;8.67;5.60;;;;;;;4.61;nan;-23945.16;5012977;28;20199;-69
2022/04/21 02:21:45;;;;;;;8.07;5.23;;;;;;;4.92;nan;-23954.00;5014410;28;20164;-71
2022/04/21 02:24:10;;;;;;;9.20;5.70;;;;;;;4.51;nan;-23942.31;5015660;28;20176;-70
2022/04/21 02:26:36;;;;;;;8.23;5.20;;;;;;;5.02;nan;-23956.84;5015093;28;20210;-68
2022/04/21 02:29:01;;;;;;;9.87;5.73;;;;;;;4.64;nan;-23946.16;5015153;28;20168;-68
2022/04/21 02:31:26;;;;;;;9.47;5.43;;;;;;;4.44;nan;-23940.47;5028682;28;20176;-72
2022/04/21 02:33:52;;;;;;;8.87;5.50;;;;;;;4.53;nan;-23942.91;5036964;28;20203;-69
2022/04/21 02:36:17;;;;;;;8.00;5.43;;;;;;;4.52;nan;-23942.59;5035927;28;20180;-71
2022/04/21 02:38:42;;;;;;;8.83;5.93;;;;;;;4.55;nan;-23943.47;5022757;28;20722;-71
2022/04/21 02:41:08;;;;;;;6.87;5.10;;;;;;;4.91;nan;-23953.72;5026332;28;20156;-73
2022/04/21 02:43:33;;;;;;;9.77;5.70;;;;;;;4.85;nan;-23952.00;5025244;28;20261;-70
2022/04/21 02:45:59;;;;;;;9.40;5.67;;;;;;;4.73;nan;-23948.59;5012812;28;20303;-70
2022/04/21 02:48:24;;;;;;;8.73;5.20;;;;;;;4.64;nan;-23946.03;5008099;28;20198;-73
2022/04/21 02:50:51;;;;;;;8.43;5.50;;;;;;;4.61;nan;-23945.31;5008934;28;20187;-72
2022/04/21 02:57:19;;;;;;;8.47;5.70;;;;;;;4.52;nan;-23942.75;5010281;28;20219;-70
2022/04/21 02:58:49;;;;;;;9.27;5.97;;;;;;;4.45;nan;-23940.91;5010860;28;20215;-71
2022/04/21 03:01:15;;;;;;;10.03;5.50;;;;;;;4.22;nan;-23934.22;5010783;28;20192;-71
2022/04/21 03:03:41;;;;;;;9.03;5.80;;;;;;;4.14;nan;-23931.94;5010550;28;20186;-71
2022/04/21 03:06:06;;;;;;;7.90;5.30;;;;;;;4.67;nan;-23947.03;5011070;28;20180;-70
2022/04/21 03:08:32;;;;;;;10.07;5.30;;;;;;;4.59;nan;-23944.59;5010116;28;20188;-70
2022/04/21 03:10:57;;;;;;;10.33;5.73;;;;;;;3.90;nan;-23925.22;5010902;28;20187;-71
2022/04/21 03:13:22;;;;;;;10.03;6.10;;;;;;;3.89;nan;-23924.94;5010452;28;20184;-69
2022/04/21 03:15:48;;;;;;;10.23;6.03;;;;;;;4.04;nan;-23929.09;5010645;28;20187;-71
2022/04/21 03:18:13;;;;;;;13.47;5.97;;;;;;;3.75;nan;-23920.97;5010057;28;20180;-71
2022/04/21 03:26:06;;;;;;;12.33;6.27;;;;;;;2.99;nan;-23899.56;5005519;28;20241;-73
2022/04/21 03:28:32;;;;;;;10.07;6.03;;;;;;;3.59;nan;-23916.41;5003685;28;20187;-71
2022/04/21 03:30:57;;;;;;;11.27;6.53;;;;;;;3.41;nan;-23911.56;5004715;28;20192;-70
2022/04/21 03:33:24;;;;;;;10.20;5.93;;;;;;;3.73;nan;-23920.38;5005282;28;20180;-70
2022/04/21 03:35:50;;;;;;;9.47;5.73;;;;;;;3.76;nan;-23921.25;5004415;28;20191;-72
2022/04/21 03:38:15;;;;;;;8.67;5.83;;;;;;;3.70;nan;-23919.53;5006967;28;20200;-73
2022/04/21 03:40:40;;;;;;;10.97;6.10;;;;;;;3.23;nan;-23906.44;5007438;28;20187;-71
2022/04/21 03:43:07;;;;;;;9.30;5.83;;;;;;;3.75;nan;-23921.09;5009655;28;20215;-73
2022/04/21 03:45:33;;;;;;;9.27;5.60;;;;;;;4.30;nan;-23936.63;5008562;28;20180;-74
2022/04/21 03:48:01;;;;;;;10.93;6.40;;;;;;;5.22;nan;-23962.53;5008804;28;20697;-74
2022/04/21 03:50:27;;;;;;;10.63;5.87;;;;;;;5.89;nan;-23981.28;5006442;28;20242;-72
2022/04/21 03:52:52;;;;;;;9.83;5.60;;;;;;;6.70;nan;-24003.88;5007370;28;20608;-73
2022/04/21 03:55:18;;;;;;;9.10;5.63;;;;;;;7.41;nan;-24023.88;5008219;28;20215;-72
2022/04/21 03:57:43;;;;;;;9.93;5.60;;;;;;;7.43;nan;-24024.56;5008676;28;20188;-72
2022/04/21 04:00:10;;;;;;;9.13;5.37;;;;;;;8.47;nan;-24053.63;5007541;28;20207;-71
2022/04/21 04:02:35;;;;;;;9.80;5.53;;;;;;;9.01;nan;-24068.75;5007365;28;20208;-69
2022/04/21 04:05:02;;;;;;;7.90;5.30;;;;;;;9.08;nan;-24070.59;5008462;28;20561;-73
2022/04/21 04:13:09;;;;;;;8.40;5.10;;;;;;;8.81;nan;-24063.25;5007643;28;20670;-73
2022/04/21 04:15:34;;;;;;;8.33;5.20;;;;;;;9.62;nan;-24085.84;5009711;28;20184;-75
2022/04/21 04:18:00;;;;;;;9.37;5.60;;;;;;;10.62;nan;-24113.81;5008427;28;20183;-77
2022/04/21 04:20:25;;;;;;;8.60;5.87;;;;;;;10.87;nan;-24120.59;5007401;28;20595;-74
2022/04/21 04:22:51;;;;;;;8.87;5.37;;;;;;;10.97;nan;-24123.53;5010611;28;20184;-75
2022/04/21 04:25:16;;;;;;;10.73;6.37;;;;;;;11.09;nan;-24126.78;5012984;28;20176;-72
2022/04/21 04:27:41;;;;;;;9.70;6.20;;;;;;;11.58;nan;-24140.31;5014335;28;20195;-76
2022/04/21 04:30:08;;;;;;;10.47;6.23;;;;;;;12.48;nan;-24165.53;5014080;28;20180;-74
2022/04/21 04:32:35;;;;;;;8.90;6.00;;;;;;;12.40;nan;-24163.28;5014252;28;20659;-74
2022/04/21 04:35:00;;;;;;;8.63;5.97;;;;;;;11.99;nan;-24151.72;5014069;28;20555;-73
2022/04/21 04:37:26;;;;;;;11.00;6.33;;;;;;;11.86;nan;-24148.34;5014144;28;20180;-70
2022/04/21 04:39:52;;;;;;;9.47;6.03;;;;;;;11.07;nan;-24126.22;5014034;28;20749;-75
2022/04/21 04:42:17;;;;;;;9.80;6.07;;;;;;;10.56;nan;-24112.13;5014892;28;20623;-72
2022/04/21 04:44:44;;;;;;;9.43;5.35;;;;;;;10.36;nan;-24106.47;5014405;28;20230;-72
2022/04/21 04:47:09;;;;;;;10.47;5.67;;;;;;;9.51;nan;-24082.59;5013780;28;20180;-73
2022/04/21 04:49:35;;;;;;;12.17;6.43;;;;;;;9.14;nan;-24072.28;5013591;28;20176;-71
2022/04/21 04:52:00;;;;;;;13.33;7.47;;;;;;;9.37;nan;-24078.66;5012152;28;20622;-75
2022/04/21 04:54:27;;;;;;;12.27;6.70;;;;;;;9.24;nan;-24075.25;5013762;28;20231;-73
2022/04/21 04:56:52;;;;;;;12.13;7.07;;;;;;;8.84;nan;-24064.09;5012928;28;20184;-71
2022/04/21 04:59:18;;;;;;;11.53;7.23;;;;;;;8.82;nan;-24063.38;5013094;28;20203;-72
2022/04/21 05:01:45;;;;;;;13.10;7.37;;;;;;;8.95;nan;-24066.91;5012571;28;20195;-73
2022/04/21 05:04:18;;;;;;;13.53;7.40;;;;;;;8.42;nan;-24052.19;5012003;28;20666;-73
2022/04/21 05:06:45;;;;;;;11.83;7.00;;;;;;;8.63;nan;-24058.00;5010477;28;20199;-72
2022/04/21 05:09:13;;;;;;;14.40;6.80;;;;;;;8.40;nan;-24051.63;5012176;28;20257;-71
2022/04/21 05:11:40;;;;;;;13.43;7.23;;;;;;;8.17;nan;-24045.13;5012442;28;20195;-72
2022/04/21 05:14:09;;;;;;;12.70;7.50;;;;;;;8.11;nan;-24043.41;5013356;28;20216;-73
2022/04/21 05:16:37;;;;;;;10.40;6.67;;;;;;;7.58;nan;-24028.69;5012178;28;20638;-75
2022/04/21 05:19:13;;;;;;;11.60;7.33;;;;;;;7.06;nan;-24014.22;5013238;28;20203;-74
2022/04/21 05:21:40;;;;;;;14.17;8.13;;;;;;;7.32;nan;-24021.31;5012518;28;20312;-73
2022/04/21 05:24:07;;;;;;;13.20;7.00;;;;;;;7.18;nan;-24017.47;5013488;28;20766;-74
2022/04/21 05:26:33;;;;;;;10.57;6.90;;;;;;;7.66;nan;-24030.94;5012445;28;20192;-71
2022/04/21 05:30:55;;;;;;;11.17;7.10;;;;;;;7.59;nan;-24028.97;5013079;28;20195;-71
2022/04/21 05:31:58;;;;;;;11.63;6.50;;;;;;;8.13;nan;-24044.13;5012046;28;20254;-74
2022/04/21 05:34:25;;;;;;;11.53;6.87;;;;;;;8.09;nan;-24042.84;5013417;28;20178;-71
2022/04/21 05:36:51;;;;;;;8.93;6.27;;;;;;;7.90;nan;-24037.75;5012600;28;20269;-74
2022/04/21 05:39:17;;;;;;;9.87;6.40;;;;;;;8.36;nan;-24050.50;5008617;28;20196;-70
2022/04/21 05:41:44;;;;;;;10.77;6.60;;;;;;;7.93;nan;-24038.59;5010263;28;20264;-73
2022/04/21 05:44:10;;;;;;;10.97;6.57;;;;;;;7.95;nan;-24039.16;4995608;28;20195;-74
2022/04/21 05:46:36;;;;;;;9.63;6.13;;;;;;;8.35;nan;-24050.22;5013140;28;20191;-72
2022/04/21 05:49:02;;;;;;;9.97;6.20;;;;;;;7.92;nan;-24038.19;5015899;28;20180;-70
2022/04/21 05:51:27;;;;;;;11.77;6.60;;;;;;;8.04;nan;-24041.56;5011461;28;20192;-71
2022/04/21 05:53:56;;;;;;;10.07;6.20;;;;;;;8.16;nan;-24044.97;5012958;28;20314;-73
2022/04/21 05:56:22;;;;;;;9.60;6.10;;;;;;;8.33;nan;-24049.78;5012471;28;20275;-75
2022/04/21 05:58:47;;;;;;;7.07;5.27;;;;;;;8.70;nan;-24059.97;5012616;28;20691;-77
2022/04/21 06:01:13;;;;;;;10.43;6.33;;;;;;;8.59;nan;-24057.00;5012390;28;20659;-72
2022/04/21 06:03:39;;;;;;;7.93;5.53;;;;;;;7.63;nan;-24030.09;5012880;28;20191;-72
2022/04/21 06:06:06;;;;;;;8.50;5.90;;;;;;;8.53;nan;-24055.31;5011898;28;20191;-71
2022/04/21 06:08:31;;;;;;;9.17;6.13;;;;;;;8.60;nan;-24057.28;5012801;28;20176;-70
2022/04/21 06:10:57;;;;;;;12.40;7.10;;;;;;;8.54;nan;-24055.47;5011957;28;20192;-72
2022/04/21 06:13:27;;;;;;;11.67;6.70;;;;;;;9.04;nan;-24069.59;5012525;28;20593;-70
2022/04/21 06:15:54;;;;;;;10.57;6.37;;;;;;;9.27;nan;-24075.97;5011988;28;20223;-71
2022/04/21 06:18:20;;;;;;;12.23;6.67;;;;;;;9.57;nan;-24084.44;5011980;28;20230;-74
2022/04/21 06:20:46;;;;;;;10.07;6.33;;;;;;;8.91;nan;-24065.94;5012526;28;20655;-70
2022/04/21 06:23:12;;;;;;;9.87;5.97;;;;;;;8.81;nan;-24063.25;5012771;28;20175;-70
2022/04/21 06:25:38;;;;;;;10.80;6.00;;;;;;;9.50;nan;-24082.31;5011952;28;20640;-70
2022/04/21 06:28:04;;;;;;;11.73;6.43;;;;;;;9.68;nan;-24087.41;5012242;28;20184;-74
2022/04/21 06:30:30;;;;;;;9.00;6.27;;;;;;;9.91;nan;-24093.91;5012010;28;20643;-72
2022/04/21 06:32:55;;;;;;;10.48;6.53;;;;;;;9.80;nan;-24090.66;5044350;28;20184;-72
2022/04/21 06:35:21;;;;;;;11.98;7.03;;;;;;;10.24;nan;-24103.09;5012125;28;20245;-74
2022/04/21 06:37:47;;;;;;;11.45;6.85;;;;;;;9.81;nan;-24090.94;5012473;28;20172;-72
2022/04/21 06:40:13;;;;;;;9.05;6.07;;;;;;;10.13;nan;-24099.97;5007678;28;20212;-72
2022/04/21 06:42:41;;;;;;;10.02;6.70;;;;;;;10.47;nan;-24109.59;4992319;28;20551;-70
2022/04/21 06:48:03;;;;;;;12.65;6.72;;;;;;;10.69;nan;-24115.66;5012073;28;20738;-74
2022/04/21 06:50:33;;;;;;;11.90;7.30;;;;;;;10.80;nan;-24118.63;5011247;28;20179;-71
2022/04/21 06:53:07;;;;;;;11.23;6.82;;;;;;;11.10;nan;-24127.06;5018914;28;20251;-74
2022/04/21 06:55:33;;;;;;;11.60;7.05;;;;;;;11.36;nan;-24134.41;5012142;28;20237;-76
2022/04/21 06:57:59;;;;;;;9.95;6.57;;;;;;;11.31;nan;-24133.00;5011973;28;20203;-74
2022/04/21 07:00:28;;;;;;;10.02;6.75;;;;;;;11.16;nan;-24128.75;5011879;28;20258;-72
2022/04/21 07:02:56;;;;;;;11.00;7.13;;;;;;;10.19;nan;-24101.81;5012371;28;20187;-74
2022/04/21 07:05:23;;;;;;;10.95;6.90;;;;;;;11.44;nan;-24136.66;5012009;28;20202;-72
2022/04/21 07:07:49;;;;;;;10.57;7.45;;;;;;;11.48;nan;-24137.78;5012215;28;20172;-72
2022/04/21 07:10:16;;;;;;;11.73;6.78;;;;;;;11.59;nan;-24140.59;5011872;28;20259;-72
2022/04/21 07:12:42;;;;;;;9.30;6.47;;;;;;;11.92;nan;-24149.91;5011858;28;20267;-73
2022/04/21 07:15:09;;;;;;;12.68;7.03;;;;;;;11.70;nan;-24143.84;5012128;28;20259;-75
2022/04/21 07:17:36;;;;;;;12.45;7.90;;;;;;;12.08;nan;-24154.41;5012267;28;20643;-74
2022/04/21 07:20:03;;;;;;;11.68;7.18;;;;;;;11.74;nan;-24144.84;5011585;28;20192;-72
2022/04/21 07:22:29;;;;;;;9.70;6.53;;;;;;;11.70;nan;-24143.69;5012469;28;20196;-71
2022/04/21 07:24:58;;;;;;;13.98;7.20;;;;;;;11.90;nan;-24149.47;5011434;28;20681;-71
2022/04/21 07:27:24;;;;;;;10.27;6.75;;;;;;;12.72;nan;-24172.13;5003619;28;20250;-73
2022/04/21 07:29:51;;;;;;;11.75;7.05;;;;;;;12.54;nan;-24167.22;5012122;28;20190;-73
2022/04/21 07:32:17;;;;;;;10.13;6.65;;;;;;;12.36;nan;-24162.16;5012229;28;20203;-73
2022/04/21 07:34:42;;;;;;;15.25;7.35;;;;;;;12.85;nan;-24175.94;5011467;28;20176;-73
2022/04/21 07:37:10;;;;;;;10.38;6.85;;;;;;;12.98;nan;-24179.44;5011874;28;20180;-71
2022/04/21 07:39:37;;;;;;;9.73;6.65;;;;;;;13.22;nan;-24186.19;5012181;28;20207;-74
2022/04/21 07:42:05;;;;;;;9.85;6.07;;;;;;;13.36;nan;-24189.84;5011872;28;20172;-72
2022/04/21 07:44:34;;;;;;;10.70;6.68;;;;;;;12.61;nan;-24169.03;5011853;28;20625;-74
2022/04/21 07:46:59;;;;;;;10.20;5.82;;;;;;;13.24;nan;-24186.75;5011595;28;20263;-70
2022/04/21 07:54:52;;;;;;;9.13;5.85;;;;;;;13.14;nan;-24183.81;5011674;28;20659;-70
2022/04/21 07:57:18;;;;;;;9.68;6.07;;;;;;;13.60;nan;-24196.72;5009250;28;20176;-72
2022/04/21 07:59:44;;;;;;;8.50;5.68;;;;;;;13.71;nan;-24199.69;5010959;28;20658;-71
2022/04/21 08:02:10;;;;;;;10.25;6.10;;;;;;;13.89;nan;-24204.59;5011491;28;20219;-73
2022/04/21 08:04:38;;;;;;;8.75;6.05;;;;;;;13.75;nan;-24200.81;5011525;28;20238;-73
2022/04/21 08:07:06;;;;;;;8.82;5.88;;;;;;;13.34;nan;-24189.44;5011185;28;20187;-72
2022/04/21 08:09:31;;;;;;;10.55;5.78;;;;;;;13.45;nan;-24192.53;5011800;28;20267;-74
2022/04/21 08:11:57;;;;;;;11.25;5.72;;;;;;;13.58;nan;-24196.03;5011551;28;20268;-73
2022/04/21 08:14:23;;;;;;;8.98;5.55;;;;;;;13.57;nan;-24195.75;5011787;28;20259;-71
2022/04/21 08:16:49;;;;;;;8.50;5.53;;;;;;;13.61;nan;-24197.00;5010230;28;20341;-71
2022/04/21 08:19:14;;;;;;;8.45;5.57;;;;;;;13.86;nan;-24203.75;5010724;28;20787;-74
2022/04/21 08:21:42;;;;;;;8.75;5.47;;;;;;;13.16;nan;-24184.50;5009488;28;20234;-76
2022/04/21 08:32:36;;;;;;;7.57;5.32;;;;;;;13.54;nan;-24194.91;5012949;28;20570;-71
2022/04/21 08:35:03;;;;;;;12.73;5.57;;;;;;;14.11;nan;-24210.75;5014393;28;20552;-74
2022/04/21 08:37:29;;;;;;;9.38;6.03;;;;;;;14.07;nan;-24209.63;5013085;28;20195;-75
2022/04/21 08:39:55;;;;;;;8.43;5.60;;;;;;;14.15;nan;-24212.03;5014983;28;20203;-72
2022/04/21 08:42:23;;;;;;;9.00;5.47;;;;;;;14.33;nan;-24216.94;5014556;28;20190;-71
2022/04/21 08:44:49;;;;;;;10.23;5.85;;;;;;;14.40;nan;-24218.75;5014342;28;20199;-73
2022/04/21 08:47:19;;;;;;;7.95;5.20;;;;;;;14.17;nan;-24212.44;5016090;28;20188;-70
2022/04/21 08:49:52;;;;;;;8.57;5.40;;;;;;;13.73;nan;-24200.38;5018456;28;20182;-74
2022/04/21 08:52:19;;;;;;;8.27;5.63;;;;;;;14.21;nan;-24213.44;5018474;28;20160;-71
2022/04/21 08:54:46;;;;;;;7.80;5.60;;;;;;;13.99;nan;-24207.41;5018649;28;20640;-74
2022/04/21 08:57:11;;;;;;;7.35;5.45;;;;;;;13.82;nan;-24202.78;5038150;28;20164;-71
2022/04/21 08:59:37;;;;;;;8.50;5.43;;;;;;;14.19;nan;-24213.00;5039261;28;20263;-70
2022/04/21 09:02:02;;;;;;;9.48;5.70;;;;;;;14.32;nan;-24216.66;5027463;28;20562;-72
2022/04/21 09:04:30;;;;;;;8.75;5.93;;;;;;;14.52;nan;-24222.13;5013191;28;20176;-73
2022/04/21 09:06:56;;;;;;;7.28;5.22;;;;;;;15.11;nan;-24238.53;5014172;28;20172;-72
2022/04/21 09:09:22;;;;;;;6.80;4.97;;;;;;;15.42;nan;-24247.22;5014143;28;20172;-74
2022/04/21 09:11:52;;;;;;;9.02;4.85;;;;;;;15.33;nan;-24244.69;5012514;28;20705;-75
2022/04/21 09:14:18;;;;;;;8.35;5.28;;;;;;;15.58;nan;-24251.41;5013859;28;20267;-72
2022/04/21 09:16:44;;;;;;;9.27;6.07;;;;;;;15.31;nan;-24244.00;5013893;28;20243;-73
2022/04/21 09:19:09;;;;;;;7.25;5.38;;;;;;;15.97;nan;-24262.19;5013426;28;20195;-76
2022/04/21 09:21:37;;;;;;;8.35;5.40;;;;;;;16.30;nan;-24271.56;5012078;28;20691;-72
2022/04/21 09:24:19;;;;;;;9.38;5.30;;;;;;;16.63;nan;-24280.50;5013655;28;20718;-74
2022/04/21 09:26:45;;;;;;;8.10;4.97;;;;;;;16.11;nan;-24266.09;5012595;28;20196;-71
2022/04/21 09:29:21;;;;;;;8.85;5.35;;;;;;;16.72;nan;-24283.03;5014007;28;20173;-74
2022/04/21 09:31:46;;;;;;;7.65;5.20;;;;;;;17.05;nan;-24292.09;5014068;28;20659;-70
2022/04/21 09:34:12;;;;;;;6.53;4.75;;;;;;;17.14;nan;-24294.63;5012890;28;20208;-72
2022/04/21 09:36:38;;;;;;;6.45;4.30;;;;;;;17.09;nan;-24293.34;5012516;28;20660;-74
2022/04/21 09:39:03;;;;;;;6.85;4.63;;;;;;;17.25;nan;-24297.56;5013026;28;20199;-73
2022/04/21 09:41:30;;;;;;;7.68;4.78;;;;;;;16.94;nan;-24289.03;5013563;28;20172;-72
2022/04/21 09:46:07;;;;;;;8.70;4.85;;;;;;;16.88;nan;-24287.50;5012807;28;20182;-71
2022/04/21 09:46:52;;;;;;;7.78;4.70;;;;;;;17.25;nan;-24297.69;5012958;28;20178;-73
2022/04/21 09:49:38;;;;;;;7.70;4.72;;;;;;;17.18;nan;-24295.72;5012745;28;20172;-73
2022/04/21 09:52:05;;;;;;;7.15;4.45;;;;;;;17.37;nan;-24300.91;5012762;28;20536;-72
2022/04/21 09:54:31;;;;;;;6.70;5.13;;;;;;;17.17;nan;-24295.44;5013828;28;20234;-74
2022/04/21 09:56:57;;;;;;;6.75;4.60;;;;;;;17.14;nan;-24294.63;5013507;28;20180;-73
2022/04/21 09:59:23;;;;;;;7.60;5.00;;;;;;;17.09;nan;-24293.34;5012770;28;20238;-73
2022/04/21 10:01:50;;;;;;;7.50;4.60;;;;;;;17.46;nan;-24303.41;5013169;28;20208;-73
2022/04/21 10:04:19;;;;;;;8.68;5.47;;;;;;;17.14;nan;-24294.75;5014219;28;20168;-73
2022/04/21 10:06:45;;;;;;;6.57;4.95;;;;;;;17.07;nan;-24292.81;5013316;28;20181;-72
2022/04/21 10:09:13;;;;;;;8.23;5.13;;;;;;;16.25;nan;-24270.03;5013005;28;20176;-73
2022/04/21 10:11:42;;;;;;;10.18;6.20;;;;;;;16.71;nan;-24282.75;5013095;28;20242;-75
2022/04/21 10:14:12;;;;;;;8.18;4.93;;;;;;;16.47;nan;-24276.16;5012734;28;20215;-74
2022/04/21 10:16:39;;;;;;;7.85;5.43;;;;;;;16.77;nan;-24284.56;5012778;28;20194;-71
2022/04/21 10:19:04;;;;;;;7.60;5.75;;;;;;;17.47;nan;-24303.81;5012392;28;20283;-70
2022/04/21 10:21:52;;;;;;;7.22;5.22;;;;;;;18.18;nan;-24323.22;5012598;28;20255;-70
2022/04/21 10:24:38;;;;;;;9.05;5.85;;;;;;;17.95;nan;-24316.94;5013041;28;20176;-71
2022/04/21 10:27:03;;;;;;;9.07;6.03;;;;;;;18.51;nan;-24332.56;5013026;28;20183;-74
2022/04/21 10:29:29;;;;;;;10.43;6.80;;;;;;;18.73;nan;-24338.41;5012287;28;20670;-73
2022/04/21 10:32:04;;;;;;;10.82;6.18;;;;;;;19.02;nan;-24346.47;5013017;28;20168;-74
2022/04/21 10:34:38;;;;;;;9.60;6.32;;;;;;;19.18;nan;-24350.78;5013103;28;20168;-73
2022/04/21 10:37:11;;;;;;;9.43;6.03;;;;;;;18.74;nan;-24338.69;5012537;28;20208;-73
2022/04/21 10:39:37;;;;;;;9.35;6.85;;;;;;;18.32;nan;-24327.25;5012116;28;20639;-75
2022/04/21 10:42:10;;;;;;;9.90;6.40;;;;;;;18.51;nan;-24332.56;5012238;28;20250;-71
2022/04/21 10:44:47;;;;;;;9.90;6.47;;;;;;;18.18;nan;-24323.22;5011963;28;20641;-70
2022/04/21 10:47:35;;;;;;;10.43;6.53;;;;;;;17.58;nan;-24306.75;5011504;28;20176;-70
2022/04/21 10:50:11;;;;;;;10.70;6.57;;;;;;;17.72;nan;-24310.53;5009356;28;20191;-72
2022/04/21 10:57:48;;;;;;;10.32;6.38;;;;;;;16.87;nan;-24287.06;5011941;28;20219;-74
2022/04/21 11:00:26;;;;;;;8.68;6.22;;;;;;;16.55;nan;-24278.41;5011568;28;20204;-71
2022/04/21 11:03:10;;;;;;;12.88;6.90;;;;;;;16.22;nan;-24269.19;5011181;28;20588;-71
2022/04/21 11:05:38;;;;;;;10.32;6.18;;;;;;;16.10;nan;-24265.81;5011964;28;20217;-71
2022/04/21 11:08:14;;;;;;;12.50;6.22;;;;;;;16.67;nan;-24281.78;5012880;28;20167;-73
2022/04/21 11:10:43;;;;;;;9.68;6.20;;;;;;;16.99;nan;-24290.56;5012972;28;20191;-75
2022/04/21 11:13:13;;;;;;;9.27;6.03;;;;;;;18.10;nan;-24321.25;5011877;28;20194;-73
2022/04/21 11:15:45;;;;;;;8.65;5.80;;;;;;;18.51;nan;-24332.56;5011716;28;20187;-71
2022/04/21 11:18:14;;;;;;;8.93;5.60;;;;;;;18.04;nan;-24319.59;5011857;28;20643;-75
2022/04/21 11:20:44;;;;;;;10.00;6.43;;;;;;;18.40;nan;-24329.47;5011721;28;20208;-73
2022/04/21 11:23:23;;;;;;;9.75;6.85;;;;;;;17.97;nan;-24317.50;5011909;28;20171;-73
2022/04/21 11:25:50;;;;;;;9.27;6.63;;;;;;;17.34;nan;-24300.06;5011395;28;20261;-73
2022/04/21 11:28:24;;;;;;;7.10;5.18;;;;;;;17.39;nan;-24301.44;5011528;28;20242;-75
2022/04/21 11:30:59;;;;;;;9.15;5.50;;;;;;;17.88;nan;-24315.00;5010983;28;20647;-72
2022/04/21 11:33:25;;;;;;;8.73;5.53;;;;;;;17.65;nan;-24308.72;5009799;28;20249;-73
2022/04/21 11:36:15;;;;;;;8.05;5.35;;;;;;;17.65;nan;-24308.84;5009986;28;20265;-74
2022/04/21 11:38:43;;;;;;;10.25;5.03;;;;;;;17.31;nan;-24299.22;5009965;28;20196;-75
2022/04/21 11:41:10;;;;;;;9.38;5.93;;;;;;;17.31;nan;-24299.22;5010457;28;20291;-74
2022/04/21 11:43:37;;;;;;;10.35;6.30;;;;;;;17.06;nan;-24292.38;5011528;28;20172;-75
2022/04/21 11:46:05;;;;;;;9.50;5.82;;;;;;;17.81;nan;-24313.03;5011308;28;20176;-73
2022/04/21 11:48:39;;;;;;;9.77;6.57;;;;;;;17.57;nan;-24306.63;5009441;28;20195;-72
2022/04/21 11:51:11;;;;;;;12.27;7.00;;;;;;;17.44;nan;-24302.84;5009417;28;20176;-71
2022/04/21 11:53:42;;;;;;;10.02;6.50;;;;;;;17.09;nan;-24293.34;5009669;28;20281;-72
2022/04/21 11:56:10;;;;;;;10.02;6.15;;;;;;;16.77;nan;-24284.56;5010800;28;20183;-75
2022/04/21 11:58:43;;;;;;;11.05;6.55;;;;;;;16.26;nan;-24270.31;5008705;28;20674;-69
2022/04/21 12:06:46;;;;;;;10.02;6.32;;;;;;;16.48;nan;-24276.31;5014030;28;20195;-72
2022/04/21 12:09:20;;;;;;;8.73;5.93;;;;;;;16.51;nan;-24277.16;5010769;28;20176;-72
2022/04/21 12:12:00;;;;;;;9.75;5.93;;;;;;;16.52;nan;-24277.56;5013548;28;20198;-71
2022/04/21 12:14:26;;;;;;;12.43;6.65;;;;;;;16.37;nan;-24273.25;5016427;28;20183;-71
2022/04/21 12:17:06;;;;;;;7.85;5.75;;;;;;;16.20;nan;-24268.63;5013846;28;20180;-71
2022/04/21 12:19:37;;;;;;;7.45;5.53;;;;;;;16.40;nan;-24274.06;5014165;28;20338;-71
2022/04/21 12:22:09;;;;;;;8.27;5.53;;;;;;;16.33;nan;-24272.25;5014207;28;20183;-71
2022/04/21 12:24:44;;;;;;;7.80;5.53;;;;;;;16.43;nan;-24274.91;5014115;28;20575;-71
2022/04/21 12:27:18;;;;;;;12.95;6.30;;;;;;;16.00;nan;-24263.03;5014130;28;20180;-71
2022/04/21 12:30:01;;;;;;;9.82;6.47;;;;;;;16.08;nan;-24265.28;5012905;28;20531;-72
2022/04/21 12:32:32;;;;;;;11.30;5.85;;;;;;;15.97;nan;-24262.31;5013552;28;20273;-70
2022/04/21 12:34:59;;;;;;;9.50;6.25;;;;;;;15.61;nan;-24252.41;5014529;28;20539;-70